createdAt,value
2022-12-17T00:02:41.134Z,77.05
2022-12-17T00:08:04.022Z,78.72
2022-12-17T00:13:35.130Z,85.87
2022-12-17T00:18:56.883Z,79.82
2022-12-17T00:24:19.869Z,113.78
2022-12-17T00:29:41.148Z,102.65
2022-12-17T00:35:02.531Z,96.97
2022-12-17T00:40:26.507Z,96.35
2022-12-17T00:45:47.900Z,96.43
2022-12-17T00:51:15.085Z,105.97
2022-12-17T00:56:37.864Z,97.43
2022-12-17T01:02:00.146Z,95.68
2022-12-17T01:07:21.763Z,98.78
2022-12-17T01:12:44.538Z,101.62
2022-12-17T01:18:05.933Z,109.60
2022-12-17T01:23:27.756Z,109.40
2022-12-17T01:28:50.600Z,111.57
2022-12-17T01:34:11.962Z,100.97
2022-12-17T01:39:33.305Z,103.65
2022-12-17T01:45:18.761Z,104.97
2022-12-17T01:50:42.677Z,99.62
2022-12-17T01:56:04.690Z,107.18
2022-12-17T02:01:28.030Z,106.32
2022-12-17T02:06:53.406Z,107.78
2022-12-17T02:12:34.417Z,93.20
2022-12-17T02:18:00.838Z,92.28
2022-12-17T02:23:33.541Z,97.37
2022-12-17T02:29:03.623Z,85.03
2022-12-17T02:39:46.237Z,97.65
2022-12-17T02:45:09.054Z,100.47
2022-12-17T02:50:30.826Z,97.03
2022-12-17T02:55:53.370Z,94.80
2022-12-17T03:01:16.326Z,94.45
2022-12-17T03:06:37.959Z,93.35
2022-12-17T03:11:59.331Z,109.40
2022-12-17T03:17:22.685Z,94.35
2022-12-17T03:22:44.127Z,96.07
2022-12-17T03:28:05.502Z,98.22
2022-12-17T03:33:27.494Z,100.47
2022-12-17T03:38:48.720Z,102.55
2022-12-17T03:44:10.102Z,97.35
2022-12-17T03:49:32.898Z,102.47
2022-12-17T03:54:54.301Z,99.15
2022-12-17T04:00:15.580Z,99.43
2022-12-17T04:05:37.660Z,104.28
2022-12-17T04:10:59.257Z,103.95
2022-12-17T04:16:20.496Z,118.57
2022-12-17T04:21:43.133Z,126.50
2022-12-17T04:27:04.054Z,123.85
2022-12-17T04:32:24.869Z,126.85
2022-12-17T04:37:47.674Z,125.90
2022-12-17T04:43:08.843Z,121.55
2022-12-17T04:48:30.129Z,124.05
2022-12-17T04:53:53.332Z,125.30
2022-12-17T04:59:14.638Z,133.85
2022-12-17T05:04:36.238Z,145.55
2022-12-17T05:09:58.940Z,128.35
2022-12-17T05:15:32.207Z,129.82
2022-12-17T05:20:50.170Z,130.05
2022-12-17T05:31:40.896Z,138.52
2022-12-17T05:37:04.851Z,135.35
2022-12-17T05:42:27.315Z,137.02
2022-12-17T05:47:50.313Z,122.37
2022-12-17T05:53:11.503Z,138.85
2022-12-17T05:58:34.002Z,141.15
2022-12-17T06:03:55.575Z,153.02
2022-12-17T06:09:17.075Z,150.40
2022-12-17T06:14:40.042Z,139.93
2022-12-17T06:20:01.407Z,146.57
2022-12-17T06:25:23.214Z,153.62
2022-12-17T06:30:45.902Z,183.18
2022-12-17T06:36:07.276Z,164.15
2022-12-17T06:41:28.783Z,203.68
2022-12-17T06:46:51.835Z,154.90
2022-12-17T06:52:13.278Z,167.37
2022-12-17T06:57:41.836Z,164.95
2022-12-17T07:03:10.191Z,142.23
2022-12-17T07:08:36.011Z,155.57
2022-12-17T07:13:57.298Z,136.25
2022-12-17T07:19:25.342Z,126.80
2022-12-17T07:24:48.594Z,141.20
2022-12-17T07:30:09.995Z,130.65
2022-12-17T07:35:32.664Z,132.20
2022-12-17T07:40:54.002Z,142.82
2022-12-17T07:46:15.476Z,120.55
2022-12-17T07:51:49.865Z,116.82
2022-12-17T07:57:11.240Z,129.87
2022-12-17T08:02:32.774Z,118.82
2022-12-17T08:07:55.525Z,128.75
2022-12-17T08:13:18.722Z,120.25
2022-12-17T08:18:40.083Z,121.07
2022-12-17T08:24:02.870Z,124.95
2022-12-17T08:29:24.335Z,125.97
2022-12-17T08:34:45.660Z,125.87
2022-12-17T08:40:08.281Z,132.85
2022-12-17T08:45:29.634Z,131.55
2022-12-17T08:50:51.312Z,128.60
2022-12-17T08:56:13.970Z,140.43
2022-12-17T09:01:35.734Z,142.50
2022-12-17T09:06:57.235Z,151.15
2022-12-17T09:12:19.986Z,144.00
2022-12-17T09:17:41.423Z,144.80
2022-12-17T09:23:02.806Z,146.50
2022-12-17T09:28:25.839Z,127.12
2022-12-17T09:33:47.206Z,136.52
2022-12-17T09:39:08.684Z,132.63
2022-12-17T09:44:40.929Z,140.52
2022-12-17T09:50:02.477Z,149.23
2022-12-17T09:55:40.608Z,138.23
2022-12-17T10:01:12.274Z,130.07
2022-12-17T10:06:37.901Z,137.40
2022-12-17T10:11:59.331Z,133.87
2022-12-17T10:17:23.074Z,110.57
2022-12-17T10:22:44.547Z,132.48
2022-12-17T10:28:05.808Z,125.70
2022-12-17T10:33:35.088Z,122.62
2022-12-17T10:38:56.952Z,129.40
2022-12-17T10:44:18.314Z,129.18
2022-12-17T10:49:42.834Z,131.48
2022-12-17T10:55:14.907Z,133.93
2022-12-17T11:00:49.450Z,137.70
2022-12-17T11:06:13.978Z,116.90
2022-12-17T11:11:35.312Z,113.20
2022-12-17T11:17:01.205Z,129.38
2022-12-17T11:22:30.435Z,114.57
2022-12-17T11:27:56.700Z,120.55
2022-12-17T11:33:30.997Z,118.75
2022-12-17T11:38:57.698Z,125.65
2022-12-17T11:44:27.557Z,106.07
2022-12-17T11:50:03.520Z,110.65
2022-12-17T11:55:36.767Z,119.70
2022-12-17T12:01:04.594Z,118.00
2022-12-17T12:11:59.424Z,116.22
2022-12-17T12:17:31.985Z,103.72
2022-12-17T12:23:00.715Z,111.88
2022-12-17T12:28:32.349Z,115.05
2022-12-17T12:34:01.945Z,112.90
2022-12-17T12:39:28.887Z,122.22
2022-12-17T12:44:59.395Z,116.37
2022-12-17T12:50:30.373Z,120.65
2022-12-17T12:55:57.060Z,115.32
2022-12-17T13:01:19.825Z,105.85
2022-12-17T13:06:41.550Z,120.55
2022-12-17T13:11:47.019Z,119.85
2022-12-17T13:16:55.754Z,116.70
2022-12-17T13:22:11.396Z,107.63
2022-12-17T13:27:29.739Z,107.87
2022-12-17T13:32:43.668Z,112.45
2022-12-17T13:37:57.870Z,113.88
2022-12-17T13:43:01.767Z,108.12
2022-12-17T13:48:07.231Z,114.37
2022-12-17T13:53:12.653Z,104.90
2022-12-17T13:58:24.633Z,100.68
2022-12-17T14:03:49.935Z,102.10
2022-12-17T14:08:56.071Z,109.12
2022-12-17T14:14:00.358Z,119.60
2022-12-17T14:19:05.430Z,128.87
2022-12-17T14:24:14.051Z,133.80
2022-12-17T14:29:23.934Z,138.15
2022-12-17T14:34:30.008Z,140.20
2022-12-17T14:39:34.402Z,125.75
2022-12-17T14:44:50.177Z,111.53
2022-12-17T14:50:01.575Z,107.47
2022-12-17T14:55:24.078Z,109.43
2022-12-17T15:00:27.785Z,115.47
2022-12-17T15:05:32.941Z,123.68
2022-12-17T15:10:36.649Z,121.45
2022-12-17T15:15:40.344Z,114.07
2022-12-17T15:20:45.537Z,108.18
2022-12-17T15:25:51.590Z,116.50
2022-12-17T15:30:55.623Z,121.82
2022-12-17T15:36:00.780Z,145.23
2022-12-17T15:41:21.650Z,130.10
2022-12-17T15:46:25.523Z,121.72
2022-12-17T15:51:30.811Z,123.78
2022-12-17T15:56:37.163Z,123.82
2022-12-17T16:01:41.101Z,125.97
2022-12-17T16:06:46.314Z,131.32
2022-12-17T16:11:50.150Z,135.80
2022-12-17T16:16:54.205Z,153.70
2022-12-17T16:21:59.256Z,162.80
2022-12-17T16:27:04.828Z,150.70
2022-12-17T16:32:08.816Z,144.13
2022-12-17T16:37:13.936Z,136.00
2022-12-17T16:42:17.822Z,151.73
2022-12-17T16:47:21.531Z,150.35
2022-12-17T16:52:26.682Z,132.63
2022-12-17T16:57:30.855Z,135.20
2022-12-17T17:02:34.930Z,137.20
2022-12-17T17:07:40.263Z,133.48
2022-12-17T17:12:43.996Z,143.40
2022-12-17T17:17:55.848Z,127.82
2022-12-17T17:23:06.760Z,136.68
2022-12-17T17:28:10.489Z,129.70
2022-12-17T17:33:14.349Z,134.95
2022-12-17T17:38:19.382Z,141.75
2022-12-17T17:43:23.063Z,138.82
2022-12-17T17:48:26.781Z,135.48
2022-12-17T17:53:32.042Z,132.15
2022-12-17T17:58:36.331Z,142.15
2022-12-17T18:03:40.713Z,131.63
2022-12-17T18:08:46.425Z,155.77
2022-12-17T18:13:55.765Z,135.35
2022-12-17T18:19:01.223Z,119.72
2022-12-17T18:24:10.814Z,125.55
2022-12-17T18:29:17.159Z,130.18
2022-12-17T18:34:23.680Z,112.97
2022-12-17T18:39:28.734Z,137.55
2022-12-17T18:44:33.595Z,140.05
2022-12-17T18:49:37.844Z,143.43
2022-12-17T18:54:43.018Z,140.98
2022-12-17T18:59:46.933Z,150.27
2022-12-17T19:04:50.792Z,119.95
2022-12-17T19:09:55.884Z,118.45
2022-12-17T19:14:59.717Z,128.20
2022-12-17T19:20:03.698Z,135.40
2022-12-17T19:25:09.546Z,170.23
2022-12-17T19:30:13.788Z,129.43
2022-12-17T19:35:17.609Z,138.90
2022-12-17T19:40:22.638Z,141.23
2022-12-17T19:45:26.394Z,123.70
2022-12-17T19:50:30.434Z,115.72
2022-12-17T19:55:35.594Z,125.65
2022-12-17T20:00:39.383Z,105.40
2022-12-17T20:05:44.311Z,113.53
2022-12-17T20:10:49.345Z,117.97
2022-12-17T20:16:00.611Z,114.90
2022-12-17T20:21:05.332Z,129.45
2022-12-17T20:26:12.170Z,133.37
2022-12-17T20:31:16.198Z,121.78
2022-12-17T20:36:21.655Z,127.22
2022-12-17T20:41:28.472Z,132.87
2022-12-17T20:46:32.481Z,126.07
2022-12-17T20:51:36.552Z,127.78
2022-12-17T20:56:41.888Z,118.37
2022-12-17T21:01:49.131Z,130.05
2022-12-17T21:06:55.353Z,130.70
2022-12-17T21:12:00.670Z,132.45
2022-12-17T21:17:04.832Z,114.65
2022-12-17T21:22:10.490Z,113.65
2022-12-17T21:27:17.255Z,107.65
2022-12-17T21:32:21.047Z,97.05
2022-12-17T21:37:24.822Z,109.97
2022-12-17T21:42:47.586Z,105.72
2022-12-17T21:47:51.856Z,110.40
2022-12-17T21:52:55.632Z,101.03
2022-12-17T21:58:00.716Z,110.37
2022-12-17T22:03:04.667Z,100.32
2022-12-17T22:08:08.325Z,96.30
2022-12-17T22:13:31.472Z,90.15
2022-12-17T22:18:35.221Z,101.60
2022-12-17T22:23:38.984Z,104.80
2022-12-17T22:28:48.403Z,97.30
2022-12-17T22:34:25.943Z,105.65
2022-12-17T22:44:31.970Z,104.72
2022-12-17T22:44:53.158Z,110.32
2022-12-17T22:49:57.786Z,113.75
2022-12-17T22:55:02.117Z,127.32
2022-12-17T23:00:17.029Z,127.68
2022-12-17T23:05:21.133Z,130.50
2022-12-17T23:10:25.887Z,124.97
2022-12-17T23:15:34.184Z,120.80
2022-12-17T23:20:38.029Z,124.97
2022-12-17T23:25:41.814Z,120.40
2022-12-17T23:30:46.815Z,113.07
2022-12-17T23:35:50.619Z,116.00
2022-12-17T23:40:54.408Z,124.07
2022-12-17T23:45:59.564Z,113.07
2022-12-17T23:51:04.619Z,119.15
2022-12-17T23:56:10.910Z,116.32
